createdAt,value
2018-03-25T00:00:11.722Z,81.43
2018-03-25T00:01:16.898Z,81.50
2018-03-25T00:02:22.458Z,81.55
2018-03-25T00:03:27.503Z,81.53
2018-03-25T00:04:32.743Z,81.63
2018-03-25T00:05:37.935Z,81.73
2018-03-25T00:06:43.143Z,81.75
2018-03-25T00:07:48.441Z,81.78
2018-03-25T00:08:54.076Z,81.90
2018-03-25T00:09:59.279Z,81.91
2018-03-25T00:11:04.634Z,81.75
2018-03-25T00:12:09.899Z,81.84
2018-03-25T00:13:15.333Z,81.91
2018-03-25T00:14:20.431Z,81.87
2018-03-25T00:15:25.946Z,81.94
2018-03-25T00:16:31.109Z,81.96
2018-03-25T00:17:36.289Z,81.97
2018-03-25T00:18:41.487Z,82.05
2018-03-25T00:19:46.845Z,82.16
2018-03-25T00:20:52.183Z,82.29
2018-03-25T00:21:57.967Z,82.42
2018-03-25T00:23:03.231Z,82.49
2018-03-25T00:24:08.715Z,82.54
2018-03-25T00:25:13.851Z,82.62
2018-03-25T00:26:19.132Z,82.75
2018-03-25T00:27:24.355Z,82.79
2018-03-25T00:28:29.815Z,82.81
2018-03-25T00:29:34.947Z,82.93
2018-03-25T00:30:40.230Z,83.02
2018-03-25T00:31:45.359Z,83.16
2018-03-25T00:32:50.658Z,83.25
2018-03-25T00:33:55.882Z,83.27
2018-03-25T00:35:01.434Z,83.28
2018-03-25T00:36:06.653Z,83.10
2018-03-25T00:37:11.879Z,83.07
2018-03-25T00:38:17.216Z,83.12
2018-03-25T00:39:22.477Z,83.14
2018-03-25T00:40:27.659Z,83.18
2018-03-25T00:41:33.265Z,83.29
2018-03-25T00:42:38.488Z,83.39
2018-03-25T00:43:44.048Z,83.46
2018-03-25T00:44:49.332Z,83.52
2018-03-25T00:45:54.538Z,83.54
2018-03-25T00:46:59.929Z,83.55
2018-03-25T00:48:05.823Z,83.58
2018-03-25T00:49:11.196Z,83.57
2018-03-25T00:50:16.698Z,83.55
2018-03-25T00:51:22.054Z,83.66
2018-03-25T00:52:27.405Z,83.73
2018-03-25T00:53:32.885Z,83.76
2018-03-25T00:54:38.515Z,83.82
2018-03-25T00:55:43.782Z,83.90
2018-03-25T00:56:49.126Z,83.90
2018-03-25T00:57:54.465Z,83.91
2018-03-25T00:58:59.823Z,83.92
2018-03-25T01:00:05.279Z,83.95
2018-03-25T01:01:13.513Z,83.89
2018-03-25T01:02:19.135Z,83.73
2018-03-25T01:03:24.348Z,83.54
2018-03-25T01:04:29.886Z,83.27
2018-03-25T01:05:35.287Z,83.21
2018-03-25T01:06:40.478Z,83.13
2018-03-25T01:07:46.229Z,83.20
2018-03-25T01:08:51.556Z,83.29
2018-03-25T01:09:56.820Z,83.48
2018-03-25T01:11:02.208Z,83.64
2018-03-25T01:12:07.782Z,83.74
2018-03-25T01:13:13.179Z,83.85
2018-03-25T01:14:19.075Z,83.93
2018-03-25T01:15:25.191Z,84.05
2018-03-25T01:16:30.752Z,84.09
2018-03-25T01:17:36.336Z,84.09
2018-03-25T01:18:42.007Z,84.04
2018-03-25T01:19:47.490Z,84.09
2018-03-25T01:20:53.464Z,84.09
2018-03-25T01:21:59.714Z,84.05
2018-03-25T01:23:05.164Z,84.00
2018-03-25T01:24:10.771Z,84.00
2018-03-25T01:25:16.266Z,84.03
2018-03-25T01:26:21.973Z,84.19
2018-03-25T01:27:27.810Z,84.33
2018-03-25T01:28:33.343Z,84.50
2018-03-25T01:29:39.162Z,84.58
2018-03-25T01:30:44.666Z,84.63
2018-03-25T01:31:50.054Z,84.72
2018-03-25T01:32:55.652Z,84.80
2018-03-25T01:34:01.630Z,84.87
2018-03-25T01:35:07.292Z,84.91
2018-03-25T01:36:12.699Z,84.90
2018-03-25T01:37:18.143Z,84.88
2018-03-25T01:38:23.765Z,84.93
2018-03-25T01:39:29.509Z,85.00
2018-03-25T01:40:35.483Z,85.06
2018-03-25T01:41:40.985Z,85.10
2018-03-25T01:42:46.587Z,85.13
2018-03-25T01:43:52.221Z,85.21
2018-03-25T01:44:57.779Z,85.25
2018-03-25T01:46:03.540Z,85.25
2018-03-25T01:47:09.821Z,85.26
2018-03-25T01:48:15.532Z,85.31
2018-03-25T01:49:21.136Z,85.31
2018-03-25T01:50:26.829Z,85.34
2018-03-25T01:51:32.330Z,85.31
2018-03-25T01:52:38.475Z,85.20
2018-03-25T01:53:43.892Z,85.17
2018-03-25T01:54:49.487Z,85.11
2018-03-25T01:55:55.040Z,85.15
2018-03-25T01:57:00.782Z,85.23
2018-03-25T01:58:06.452Z,85.22
2018-03-25T01:59:12.465Z,85.07
2018-03-25T02:00:18.236Z,84.95
2018-03-25T02:01:23.965Z,85.01
2018-03-25T02:02:29.635Z,85.06
2018-03-25T02:03:35.303Z,85.03
2018-03-25T02:04:40.940Z,85.11
2018-03-25T02:05:46.662Z,85.25
2018-03-25T02:06:52.415Z,85.28
2018-03-25T02:07:58.248Z,85.24
2018-03-25T02:09:04.213Z,85.27
2018-03-25T02:10:09.840Z,85.38
2018-03-25T02:11:15.618Z,85.48
2018-03-25T02:12:21.682Z,85.46
2018-03-25T02:13:27.310Z,85.43
2018-03-25T02:14:32.902Z,85.42
2018-03-25T02:15:38.287Z,85.40
2018-03-25T02:16:43.741Z,85.24
2018-03-25T02:17:49.417Z,85.05
2018-03-25T02:18:55.446Z,85.03
2018-03-25T02:20:01.278Z,85.13
2018-03-25T02:21:07.303Z,85.21
2018-03-25T02:22:13.344Z,85.23
2018-03-25T02:23:19.289Z,85.18
2018-03-25T02:24:25.183Z,85.18
2018-03-25T02:25:31.544Z,85.20
2018-03-25T02:26:37.499Z,85.24
2018-03-25T02:27:43.321Z,85.23
2018-03-25T02:28:49.144Z,85.23
2018-03-25T02:29:54.973Z,85.16
2018-03-25T02:31:00.611Z,85.11
2018-03-25T02:32:06.802Z,85.01
2018-03-25T02:33:12.769Z,84.95
2018-03-25T02:34:18.677Z,84.87
2018-03-25T02:35:24.224Z,84.94
2018-03-25T02:36:30.683Z,84.93
2018-03-25T02:37:36.449Z,84.95
2018-03-25T02:38:42.632Z,84.88
2018-03-25T02:39:48.668Z,84.72
2018-03-25T02:40:54.207Z,84.58
2018-03-25T02:41:59.818Z,84.55
2018-03-25T02:43:05.734Z,84.48
2018-03-25T02:44:11.383Z,84.48
2018-03-25T02:45:17.144Z,84.53
2018-03-25T02:46:23.169Z,84.57
2018-03-25T02:47:28.719Z,84.59
2018-03-25T02:48:34.480Z,84.57
2018-03-25T02:49:40.411Z,84.62
2018-03-25T02:50:45.924Z,84.72
2018-03-25T02:51:51.946Z,84.88
2018-03-25T02:52:57.384Z,84.85
2018-03-25T02:54:03.061Z,84.77
2018-03-25T02:55:08.965Z,84.67
2018-03-25T02:56:14.622Z,84.51
2018-03-25T02:57:20.369Z,84.47
2018-03-25T02:58:26.259Z,84.50
2018-03-25T02:59:31.938Z,84.46
2018-03-25T03:00:37.582Z,84.45
2018-03-25T03:01:43.257Z,84.58
2018-03-25T03:02:48.773Z,84.67
2018-03-25T03:03:54.368Z,84.72
2018-03-25T03:05:00.419Z,84.64
2018-03-25T03:06:06.090Z,84.55
2018-03-25T03:07:12.728Z,84.53
2018-03-25T03:08:18.572Z,84.49
2018-03-25T03:09:24.231Z,84.56
2018-03-25T03:10:29.598Z,84.55
2018-03-25T03:11:35.531Z,84.43
2018-03-25T03:12:41.126Z,84.33
2018-03-25T03:13:46.470Z,84.22
2018-03-25T03:14:51.656Z,84.16
2018-03-25T03:15:56.841Z,84.09
2018-03-25T03:17:01.805Z,84.03
2018-03-25T03:18:07.165Z,83.94
2018-03-25T03:19:12.472Z,83.92
2018-03-25T03:20:17.870Z,83.89
2018-03-25T03:21:23.528Z,84.03
2018-03-25T03:22:29.175Z,84.19
2018-03-25T03:23:34.354Z,84.32
2018-03-25T03:24:39.888Z,84.30
2018-03-25T03:25:45.493Z,84.33
2018-03-25T03:26:50.744Z,84.38
2018-03-25T03:27:56.022Z,84.39
2018-03-25T03:29:01.298Z,84.32
2018-03-25T03:30:06.805Z,84.36
2018-03-25T03:31:12.556Z,84.50
2018-03-25T03:32:18.482Z,84.56
2018-03-25T03:33:23.394Z,84.57
2018-03-25T03:34:28.577Z,84.62
2018-03-25T03:35:34.129Z,84.64
2018-03-25T03:36:39.652Z,84.63
2018-03-25T03:37:45.116Z,84.55
2018-03-25T03:38:50.617Z,84.51
2018-03-25T03:39:56.279Z,84.38
2018-03-25T03:41:01.530Z,84.43
2018-03-25T03:42:06.940Z,84.35
2018-03-25T03:43:12.318Z,84.25
2018-03-25T03:44:18.219Z,84.37
2018-03-25T03:45:23.250Z,84.46
2018-03-25T03:46:28.765Z,84.52
2018-03-25T03:47:34.232Z,84.63
2018-03-25T03:48:39.889Z,84.64
2018-03-25T03:49:45.626Z,84.78
2018-03-25T03:50:51.287Z,84.90
2018-03-25T03:51:56.613Z,84.91
2018-03-25T03:53:01.921Z,84.86
2018-03-25T03:54:07.445Z,84.74
2018-03-25T03:55:12.971Z,84.58
2018-03-25T03:56:18.152Z,84.53
2018-03-25T03:57:23.780Z,84.49
2018-03-25T03:58:28.922Z,84.36
2018-03-25T03:59:34.015Z,84.34
2018-03-25T04:00:39.628Z,84.25
2018-03-25T04:01:44.711Z,84.23
2018-03-25T04:02:50.230Z,84.15
2018-03-25T04:03:55.768Z,84.11
2018-03-25T04:05:02.575Z,84.06
2018-03-25T04:06:07.547Z,84.07
2018-03-25T04:07:13.102Z,84.26
2018-03-25T04:08:18.398Z,84.40
2018-03-25T04:09:23.752Z,84.46
2018-03-25T04:10:29.442Z,84.47
2018-03-25T04:11:34.999Z,84.43
2018-03-25T04:12:40.246Z,84.40
2018-03-25T04:13:45.567Z,84.48
2018-03-25T04:14:51.199Z,84.52
2018-03-25T04:15:56.528Z,84.52
2018-03-25T04:17:01.909Z,84.41
2018-03-25T04:18:06.872Z,84.33
2018-03-25T04:19:12.058Z,84.32
2018-03-25T04:20:17.209Z,84.31
2018-03-25T04:21:22.565Z,84.36
2018-03-25T04:22:27.722Z,84.38
2018-03-25T04:23:33.339Z,84.32
2018-03-25T04:24:38.645Z,84.24
2018-03-25T04:25:44.213Z,84.25
2018-03-25T04:26:49.663Z,84.28
2018-03-25T04:27:55.165Z,84.29
2018-03-25T04:29:00.772Z,84.22
2018-03-25T04:30:06.569Z,84.17
2018-03-25T04:31:11.842Z,84.21
2018-03-25T04:32:16.929Z,84.21
2018-03-25T04:33:21.932Z,84.17
2018-03-25T04:34:26.836Z,84.10
2018-03-25T04:35:32.340Z,84.08
2018-03-25T04:36:37.762Z,83.98
2018-03-25T04:37:42.937Z,83.94
2018-03-25T04:38:48.116Z,83.88
2018-03-25T04:39:53.321Z,84.04
2018-03-25T04:40:58.978Z,84.09
2018-03-25T04:42:04.472Z,83.97
2018-03-25T04:43:09.909Z,84.02
2018-03-25T04:44:15.194Z,84.08
2018-03-25T04:45:20.799Z,84.33
2018-03-25T04:46:25.777Z,84.45
2018-03-25T04:47:31.099Z,84.57
2018-03-25T04:48:36.212Z,84.58
2018-03-25T04:49:41.878Z,84.50
2018-03-25T04:50:47.014Z,84.41
2018-03-25T04:51:52.383Z,84.42
2018-03-25T04:52:57.462Z,84.37
2018-03-25T04:54:02.923Z,84.44
2018-03-25T04:55:08.080Z,84.45
2018-03-25T04:56:13.650Z,84.61
2018-03-25T04:57:18.750Z,84.77
2018-03-25T04:58:24.151Z,84.78
2018-03-25T04:59:29.528Z,84.71
2018-03-25T05:00:34.730Z,84.68
2018-03-25T05:01:39.970Z,84.68
2018-03-25T05:02:45.754Z,84.59
2018-03-25T05:03:51.073Z,84.47
2018-03-25T05:04:56.714Z,84.46
2018-03-25T05:06:01.889Z,84.39
2018-03-25T05:07:07.223Z,84.41
2018-03-25T05:08:13.036Z,84.47
2018-03-25T05:09:18.634Z,84.53
2018-03-25T05:10:23.785Z,84.62
2018-03-25T05:11:29.116Z,84.67
2018-03-25T05:12:34.418Z,84.74
2018-03-25T05:13:39.566Z,84.74
2018-03-25T05:14:44.595Z,84.64
2018-03-25T05:15:50.255Z,84.77
2018-03-25T05:16:55.191Z,84.94
2018-03-25T05:18:00.264Z,85.03
2018-03-25T05:19:05.574Z,85.01
2018-03-25T05:20:10.434Z,85.13
2018-03-25T05:21:15.476Z,85.17
2018-03-25T05:22:20.945Z,85.21
2018-03-25T05:23:25.953Z,85.22
2018-03-25T05:24:30.996Z,85.31
2018-03-25T05:25:35.826Z,85.19
2018-03-25T05:26:40.867Z,85.27
2018-03-25T05:27:46.182Z,85.35
2018-03-25T05:28:52.111Z,85.29
2018-03-25T05:29:57.534Z,85.26
2018-03-25T05:31:02.941Z,85.10
2018-03-25T05:32:08.049Z,85.07
2018-03-25T05:33:13.127Z,85.21
2018-03-25T05:34:18.712Z,85.32
2018-03-25T05:35:24.257Z,85.28
2018-03-25T05:36:29.189Z,85.36
2018-03-25T05:37:34.265Z,85.46
2018-03-25T05:38:39.185Z,85.60
2018-03-25T05:39:44.696Z,85.62
2018-03-25T05:40:50.022Z,85.59
2018-03-25T05:41:55.110Z,85.41
2018-03-25T05:43:00.005Z,85.43
2018-03-25T05:44:05.487Z,85.46
2018-03-25T05:45:10.646Z,85.49
2018-03-25T05:46:15.866Z,85.43
2018-03-25T05:47:21.546Z,85.35
2018-03-25T05:48:26.653Z,85.21
2018-03-25T05:49:32.246Z,85.22
2018-03-25T05:50:37.385Z,85.09
2018-03-25T05:51:43.440Z,85.10
2018-03-25T05:52:48.978Z,85.18
2018-03-25T05:53:54.823Z,85.29
2018-03-25T05:55:00.300Z,85.37
2018-03-25T05:56:05.725Z,85.45
2018-03-25T05:57:11.066Z,85.49
2018-03-25T05:58:16.479Z,85.59
2018-03-25T05:59:22.146Z,85.61
2018-03-25T06:00:28.196Z,85.63
2018-03-25T06:01:33.815Z,85.56
2018-03-25T06:02:39.565Z,85.37
2018-03-25T06:03:44.984Z,85.03
2018-03-25T06:04:50.610Z,84.82
2018-03-25T06:05:56.435Z,84.66
2018-03-25T06:07:02.094Z,84.56
2018-03-25T06:08:08.056Z,84.53
2018-03-25T06:09:13.386Z,84.38
2018-03-25T06:10:19.184Z,84.08
2018-03-25T06:11:24.869Z,83.69
2018-03-25T06:12:30.531Z,83.39
2018-03-25T06:13:36.420Z,82.96
2018-03-25T06:14:42.265Z,82.34
2018-03-25T06:15:47.861Z,81.68
2018-03-25T06:16:53.519Z,81.34
2018-03-25T06:17:59.223Z,80.93
2018-03-25T06:19:04.772Z,80.72
2018-03-25T06:20:10.493Z,80.20
2018-03-25T06:21:16.256Z,80.06
2018-03-25T06:22:21.574Z,80.01
2018-03-25T06:23:27.297Z,79.72
2018-03-25T06:24:32.835Z,79.46
2018-03-25T06:25:38.756Z,79.18
2018-03-25T06:26:44.869Z,79.09
2018-03-25T06:27:50.490Z,78.71
2018-03-25T06:28:56.178Z,78.69
2018-03-25T06:30:01.841Z,78.37
2018-03-25T06:31:07.798Z,78.04
2018-03-25T06:32:13.257Z,77.78
2018-03-25T06:33:19.066Z,77.68
2018-03-25T06:34:24.639Z,77.64
2018-03-25T06:35:30.359Z,77.80
2018-03-25T06:36:36.093Z,78.24
2018-03-25T06:37:41.837Z,78.63
2018-03-25T06:38:47.779Z,78.79
2018-03-25T06:39:53.321Z,78.94
2018-03-25T06:40:59.002Z,78.90
2018-03-25T06:42:04.429Z,78.74
2018-03-25T06:43:10.356Z,78.80
2018-03-25T06:44:16.207Z,79.07
2018-03-25T06:45:22.756Z,79.10
2018-03-25T06:46:28.269Z,79.07
2018-03-25T06:47:34.163Z,79.08
2018-03-25T06:48:39.654Z,79.11
2018-03-25T06:49:45.261Z,79.06
2018-03-25T06:50:51.100Z,79.10
2018-03-25T06:51:56.720Z,79.02
2018-03-25T06:53:02.388Z,78.92
2018-03-25T06:54:08.196Z,78.86
2018-03-25T06:55:14.010Z,78.77
2018-03-25T06:56:19.504Z,78.47
2018-03-25T06:57:25.559Z,78.54
2018-03-25T06:58:31.205Z,78.41
2018-03-25T06:59:36.980Z,78.16
2018-03-25T07:00:42.530Z,78.01
2018-03-25T07:01:48.365Z,77.82
2018-03-25T07:02:53.942Z,77.57
2018-03-25T07:03:59.686Z,77.28
2018-03-25T07:05:05.397Z,77.02
2018-03-25T07:06:10.844Z,76.97
2018-03-25T07:07:16.676Z,76.83
2018-03-25T07:08:22.053Z,76.60
2018-03-25T07:09:27.548Z,76.67
2018-03-25T07:10:33.235Z,76.49
2018-03-25T07:11:38.745Z,75.98
2018-03-25T07:12:44.709Z,76.07
2018-03-25T07:13:50.383Z,76.03
2018-03-25T07:14:55.830Z,76.13
2018-03-25T07:16:01.111Z,76.18
2018-03-25T07:17:06.777Z,76.05
2018-03-25T07:18:12.352Z,75.87
2018-03-25T07:19:17.912Z,75.63
2018-03-25T07:20:23.303Z,74.79
2018-03-25T07:21:28.810Z,74.69
2018-03-25T07:22:34.371Z,74.97
2018-03-25T07:23:40.060Z,75.13
2018-03-25T07:24:45.547Z,75.06
2018-03-25T07:25:51.152Z,74.96
2018-03-25T07:26:56.716Z,74.60
2018-03-25T07:28:02.047Z,74.49
2018-03-25T07:29:07.534Z,74.26
2018-03-25T07:30:13.409Z,73.88
2018-03-25T07:31:18.820Z,73.89
2018-03-25T07:32:24.179Z,73.58
2018-03-25T07:33:29.722Z,73.49
2018-03-25T07:34:35.053Z,73.21
2018-03-25T07:35:40.447Z,72.87
2018-03-25T07:36:46.038Z,72.38
2018-03-25T07:37:51.439Z,71.81
2018-03-25T07:38:56.610Z,71.03
2018-03-25T07:40:02.033Z,71.50
2018-03-25T07:41:07.518Z,71.37
2018-03-25T07:42:12.801Z,71.02
2018-03-25T07:43:18.452Z,70.68
2018-03-25T07:44:23.872Z,70.30
2018-03-25T07:45:29.150Z,69.97
2018-03-25T07:46:34.382Z,69.79
2018-03-25T07:47:39.720Z,69.59
2018-03-25T07:48:45.012Z,69.40
2018-03-25T07:49:50.637Z,68.99
2018-03-25T07:50:55.935Z,69.40
2018-03-25T07:52:01.022Z,69.19
2018-03-25T07:53:06.294Z,68.81
2018-03-25T07:54:11.454Z,68.42
2018-03-25T07:55:16.601Z,68.16
2018-03-25T07:56:22.101Z,67.77
2018-03-25T07:57:27.170Z,67.16
2018-03-25T07:58:32.419Z,67.23
2018-03-25T07:59:37.554Z,67.30
2018-03-25T08:00:42.687Z,67.09
2018-03-25T08:01:48.149Z,66.53
2018-03-25T08:02:53.686Z,66.21
2018-03-25T08:03:59.508Z,65.95
2018-03-25T08:05:05.564Z,65.44
2018-03-25T08:06:11.008Z,65.86
2018-03-25T08:07:16.478Z,65.75
2018-03-25T08:08:21.831Z,65.70
2018-03-25T08:09:27.675Z,65.44
2018-03-25T08:10:33.150Z,65.27
2018-03-25T08:11:38.490Z,65.13
2018-03-25T08:12:43.715Z,64.66
2018-03-25T08:13:48.994Z,64.42
2018-03-25T08:14:54.184Z,64.24
2018-03-25T08:15:59.802Z,63.89
2018-03-25T08:17:05.148Z,63.89
2018-03-25T08:18:10.395Z,63.50
2018-03-25T08:19:15.751Z,63.16
2018-03-25T08:20:21.239Z,63.39
2018-03-25T08:21:26.627Z,63.26
2018-03-25T08:22:32.383Z,62.91
2018-03-25T08:23:37.662Z,63.44
2018-03-25T08:24:43.049Z,63.22
2018-03-25T08:25:48.349Z,63.25
2018-03-25T08:26:53.607Z,63.03
2018-03-25T08:27:58.796Z,62.25
2018-03-25T08:29:04.397Z,62.36
2018-03-25T08:30:09.497Z,61.94
2018-03-25T08:31:14.643Z,62.03
2018-03-25T08:32:19.783Z,61.50
2018-03-25T08:33:24.993Z,61.82
2018-03-25T08:34:30.197Z,61.73
2018-03-25T08:35:35.739Z,61.11
2018-03-25T08:36:41.171Z,60.85
2018-03-25T08:37:46.483Z,60.69
2018-03-25T08:38:51.734Z,60.52
2018-03-25T08:39:56.996Z,60.19
2018-03-25T08:41:02.200Z,60.03
2018-03-25T08:42:07.727Z,59.30
2018-03-25T08:43:12.895Z,58.95
2018-03-25T08:44:18.050Z,58.92
2018-03-25T08:45:23.263Z,58.94
2018-03-25T08:46:28.618Z,59.03
2018-03-25T08:47:33.844Z,58.82
2018-03-25T08:48:39.503Z,58.46
2018-03-25T08:49:44.691Z,58.07
2018-03-25T08:50:50.045Z,57.59
2018-03-25T08:51:55.269Z,57.66
2018-03-25T08:53:00.534Z,57.29
2018-03-25T08:54:05.650Z,57.06
2018-03-25T08:55:10.906Z,56.66
2018-03-25T08:56:16.045Z,56.54
2018-03-25T08:57:21.327Z,56.41
2018-03-25T08:58:26.461Z,56.16
2018-03-25T08:59:31.650Z,55.63
2018-03-25T09:00:36.824Z,55.56
2018-03-25T09:01:41.923Z,55.18
2018-03-25T09:02:47.117Z,55.27
2018-03-25T09:03:52.278Z,55.01
2018-03-25T09:04:57.325Z,54.71
2018-03-25T09:06:02.718Z,54.40
2018-03-25T09:07:07.856Z,54.05
2018-03-25T09:08:12.901Z,53.89
2018-03-25T09:09:18.181Z,53.53
2018-03-25T09:10:23.436Z,53.13
2018-03-25T09:11:28.643Z,52.99
2018-03-25T09:12:33.766Z,53.08
2018-03-25T09:13:39.079Z,52.78
2018-03-25T09:14:44.416Z,52.36
2018-03-25T09:15:49.688Z,52.14
2018-03-25T09:16:55.070Z,51.72
2018-03-25T09:18:00.233Z,51.30
2018-03-25T09:19:05.354Z,50.96
2018-03-25T09:20:10.638Z,50.60
2018-03-25T09:21:15.922Z,50.54
2018-03-25T09:22:21.355Z,50.28
2018-03-25T09:23:26.891Z,50.01
2018-03-25T09:24:31.961Z,49.48
2018-03-25T09:25:37.236Z,49.38
2018-03-25T09:26:42.266Z,49.23
2018-03-25T09:27:47.417Z,48.82
2018-03-25T09:28:52.585Z,48.92
2018-03-25T09:29:57.996Z,48.88
2018-03-25T09:31:03.131Z,48.63
2018-03-25T09:32:08.242Z,48.11
2018-03-25T09:33:13.362Z,47.95
2018-03-25T09:34:18.420Z,47.61
2018-03-25T09:35:23.643Z,47.36
2018-03-25T09:36:29.050Z,46.81
2018-03-25T09:37:34.251Z,46.55
2018-03-25T09:38:39.304Z,46.73
2018-03-25T09:39:44.433Z,46.55
2018-03-25T09:40:49.536Z,46.26
2018-03-25T09:41:55.811Z,46.57
2018-03-25T09:43:01.246Z,45.99
2018-03-25T09:44:06.695Z,46.24
2018-03-25T09:45:11.773Z,45.71
2018-03-25T09:46:16.958Z,45.87
2018-03-25T09:47:22.029Z,45.62
2018-03-25T09:48:27.176Z,45.43
2018-03-25T09:49:32.518Z,45.26
2018-03-25T09:50:37.500Z,45.03
2018-03-25T09:51:42.604Z,44.48
2018-03-25T09:52:47.658Z,44.26
2018-03-25T09:53:52.692Z,44.29
2018-03-25T09:54:57.748Z,44.09
2018-03-25T09:56:03.185Z,43.88
2018-03-25T09:57:08.387Z,43.40
2018-03-25T09:58:13.634Z,42.95
2018-03-25T09:59:18.682Z,42.95
2018-03-25T10:00:27.844Z,42.77
2018-03-25T10:01:35.756Z,42.52
2018-03-25T10:02:43.061Z,42.22
2018-03-25T10:03:48.168Z,41.90
2018-03-25T10:04:54.162Z,41.48
2018-03-25T10:05:59.225Z,41.34
2018-03-25T10:07:04.344Z,41.05
2018-03-25T10:08:10.117Z,40.70
2018-03-25T10:09:15.433Z,40.84
2018-03-25T10:10:24.641Z,40.08
2018-03-25T10:11:29.733Z,40.37
2018-03-25T10:12:34.685Z,40.60
2018-03-25T10:13:39.681Z,40.56
2018-03-25T10:14:44.968Z,40.30
2018-03-25T10:15:49.984Z,40.00
2018-03-25T10:16:55.023Z,39.39
2018-03-25T10:18:00.016Z,39.68
2018-03-25T10:19:05.120Z,39.73
2018-03-25T10:20:10.252Z,39.09
2018-03-25T10:21:15.634Z,39.10
2018-03-25T10:22:20.691Z,38.71
2018-03-25T10:23:25.576Z,38.43
2018-03-25T10:24:30.669Z,38.81
2018-03-25T10:25:35.737Z,39.02
2018-03-25T10:26:40.855Z,39.21
2018-03-25T10:27:46.390Z,39.65
2018-03-25T10:28:51.473Z,39.46
2018-03-25T10:29:56.991Z,39.78
2018-03-25T10:31:01.866Z,39.79
2018-03-25T10:32:06.917Z,40.45
2018-03-25T10:33:12.019Z,40.35
2018-03-25T10:34:17.605Z,39.93
2018-03-25T10:35:22.770Z,39.38
2018-03-25T10:36:27.954Z,38.90
2018-03-25T10:37:32.983Z,38.45
2018-03-25T10:38:38.151Z,38.00
2018-03-25T10:39:43.161Z,38.11
2018-03-25T10:40:48.507Z,38.14
2018-03-25T10:41:53.459Z,38.20
2018-03-25T10:42:58.595Z,37.90
2018-03-25T10:44:03.579Z,37.70
2018-03-25T10:45:08.751Z,37.87
2018-03-25T10:46:13.772Z,37.64
2018-03-25T10:47:18.800Z,38.07
2018-03-25T10:48:23.851Z,38.93
2018-03-25T10:49:28.715Z,39.71
2018-03-25T10:50:33.578Z,39.70
2018-03-25T10:51:38.461Z,40.09
2018-03-25T10:52:43.382Z,40.11
2018-03-25T10:53:48.656Z,39.89
2018-03-25T10:54:53.558Z,40.25
2018-03-25T10:55:58.472Z,39.88
2018-03-25T10:57:03.344Z,39.71
2018-03-25T10:58:08.330Z,39.66
2018-03-25T10:59:13.305Z,39.72
2018-03-25T11:00:18.636Z,39.94
2018-03-25T11:01:23.641Z,39.77
2018-03-25T11:02:28.690Z,39.75
2018-03-25T11:03:33.803Z,39.41
2018-03-25T11:04:38.901Z,39.21
2018-03-25T11:05:44.001Z,38.49
2018-03-25T11:06:49.520Z,38.04
2018-03-25T11:07:54.692Z,38.52
2018-03-25T11:08:59.796Z,39.05
2018-03-25T11:10:04.915Z,39.22
2018-03-25T11:11:09.949Z,39.30
2018-03-25T11:12:15.111Z,39.15
2018-03-25T11:13:20.673Z,39.22
2018-03-25T11:14:25.959Z,39.19
2018-03-25T11:15:31.052Z,39.00
2018-03-25T11:16:36.270Z,39.04
2018-03-25T11:17:41.416Z,39.08
2018-03-25T11:18:46.505Z,38.91
2018-03-25T11:19:51.837Z,38.76
2018-03-25T11:20:56.996Z,38.29
2018-03-25T11:22:02.227Z,38.01
2018-03-25T11:23:07.627Z,37.74
2018-03-25T11:24:12.740Z,37.53
2018-03-25T11:25:17.862Z,38.02
2018-03-25T11:26:23.284Z,38.14
2018-03-25T11:27:28.409Z,38.18
2018-03-25T11:28:33.497Z,38.45
2018-03-25T11:29:38.480Z,38.75
2018-03-25T11:30:43.613Z,38.76
2018-03-25T11:31:48.595Z,38.37
2018-03-25T11:32:53.964Z,38.40
2018-03-25T11:33:59.164Z,38.29
2018-03-25T11:35:04.242Z,38.31
2018-03-25T11:36:09.285Z,38.22
2018-03-25T11:37:14.473Z,38.24
2018-03-25T11:38:20.033Z,38.01
2018-03-25T11:39:25.467Z,37.83
2018-03-25T11:40:30.454Z,37.86
2018-03-25T11:41:35.549Z,37.65
2018-03-25T11:42:40.721Z,37.46
2018-03-25T11:43:45.791Z,37.65
2018-03-25T11:44:50.859Z,37.58
2018-03-25T11:45:56.460Z,37.41
2018-03-25T11:47:01.511Z,37.67
2018-03-25T11:48:06.641Z,37.54
2018-03-25T11:49:11.683Z,37.67
2018-03-25T11:50:16.694Z,37.61
2018-03-25T11:51:21.833Z,37.47
2018-03-25T11:52:27.474Z,37.28
2018-03-25T11:53:32.590Z,37.03
2018-03-25T11:54:37.648Z,37.09
2018-03-25T11:55:42.593Z,36.51
2018-03-25T11:56:47.722Z,36.70
2018-03-25T11:57:52.800Z,36.40
2018-03-25T11:58:58.258Z,36.07
2018-03-25T12:00:04.341Z,36.09
2018-03-25T12:01:10.403Z,35.43
2018-03-25T12:02:15.440Z,36.11
2018-03-25T12:03:20.489Z,35.90
2018-03-25T12:04:25.555Z,36.61
2018-03-25T12:05:30.916Z,36.50
2018-03-25T12:06:35.970Z,36.42
2018-03-25T12:07:41.012Z,36.81
2018-03-25T12:08:45.978Z,36.94
2018-03-25T12:09:51.025Z,36.94
2018-03-25T12:10:56.174Z,36.47
2018-03-25T12:12:01.747Z,36.56
2018-03-25T12:13:06.828Z,36.91
2018-03-25T12:14:11.762Z,37.13
2018-03-25T12:15:16.856Z,37.02
2018-03-25T12:16:22.000Z,36.98
2018-03-25T12:17:27.145Z,36.67
2018-03-25T12:18:32.710Z,36.08
2018-03-25T12:19:38.719Z,35.70
2018-03-25T12:20:43.856Z,35.39
2018-03-25T12:21:49.033Z,35.25
2018-03-25T12:22:54.186Z,35.10
2018-03-25T12:23:59.594Z,34.89
2018-03-25T12:25:04.695Z,35.14
2018-03-25T12:26:09.804Z,35.16
2018-03-25T12:27:14.797Z,35.05
2018-03-25T12:28:20.892Z,34.98
2018-03-25T12:29:26.125Z,35.24
2018-03-25T12:30:31.770Z,35.29
2018-03-25T12:31:36.748Z,34.99
2018-03-25T12:32:41.853Z,35.68
2018-03-25T12:33:47.040Z,36.12
2018-03-25T12:34:52.066Z,35.81
2018-03-25T12:35:57.001Z,35.66
2018-03-25T12:37:02.423Z,35.63
2018-03-25T12:38:07.548Z,35.49
2018-03-25T12:39:12.615Z,35.50
2018-03-25T12:40:18.470Z,35.15
2018-03-25T12:41:23.645Z,34.79
2018-03-25T12:42:28.718Z,34.67
2018-03-25T12:43:34.514Z,34.38
2018-03-25T12:44:39.729Z,34.37
2018-03-25T12:45:44.768Z,34.00
2018-03-25T12:46:49.722Z,33.59
2018-03-25T12:47:54.743Z,33.92
2018-03-25T12:48:59.802Z,34.55
2018-03-25T12:50:05.216Z,34.85
2018-03-25T12:51:10.286Z,35.04
2018-03-25T12:52:15.404Z,34.68
2018-03-25T12:53:20.495Z,34.48
2018-03-25T12:54:25.598Z,34.33
2018-03-25T12:55:30.769Z,34.44
2018-03-25T12:56:36.232Z,34.39
2018-03-25T12:57:41.313Z,34.62
2018-03-25T12:58:46.527Z,34.69
2018-03-25T12:59:51.638Z,34.78
2018-03-25T13:00:56.762Z,34.86
2018-03-25T13:02:01.804Z,35.08
2018-03-25T13:03:07.336Z,34.85
2018-03-25T13:04:12.330Z,34.51
2018-03-25T13:05:17.505Z,34.45
2018-03-25T13:06:22.584Z,34.44
2018-03-25T13:07:27.745Z,34.15
2018-03-25T13:08:32.927Z,33.90
2018-03-25T13:09:38.085Z,33.43
2018-03-25T13:10:43.156Z,33.41
2018-03-25T13:11:48.455Z,33.42
2018-03-25T13:12:53.544Z,33.67
2018-03-25T13:13:58.628Z,33.86
2018-03-25T13:15:04.040Z,33.83
2018-03-25T13:16:09.203Z,33.75
2018-03-25T13:17:14.240Z,33.31
2018-03-25T13:18:19.307Z,33.13
2018-03-25T13:19:24.340Z,33.15
2018-03-25T13:20:29.450Z,33.50
2018-03-25T13:21:34.874Z,33.24
2018-03-25T13:22:40.945Z,32.98
2018-03-25T13:23:46.015Z,33.05
2018-03-25T13:24:51.178Z,33.04
2018-03-25T13:25:56.244Z,33.07
2018-03-25T13:27:01.312Z,33.07
2018-03-25T13:28:06.673Z,32.91
2018-03-25T13:29:11.632Z,32.97
2018-03-25T13:30:16.761Z,32.65
2018-03-25T13:31:22.002Z,32.09
2018-03-25T13:32:27.119Z,31.82
2018-03-25T13:33:32.139Z,31.83
2018-03-25T13:34:37.259Z,31.96
2018-03-25T13:35:42.330Z,31.98
2018-03-25T13:36:47.720Z,31.78
2018-03-25T13:37:53.165Z,31.64
2018-03-25T13:38:59.143Z,31.48
2018-03-25T13:40:05.475Z,31.64
2018-03-25T13:41:10.615Z,32.30
2018-03-25T13:42:15.947Z,32.64
2018-03-25T13:43:21.155Z,32.93
2018-03-25T13:44:26.261Z,32.92
2018-03-25T13:45:31.374Z,32.47
2018-03-25T13:46:36.738Z,32.13
2018-03-25T13:47:41.897Z,31.69
2018-03-25T13:48:46.956Z,31.87
2018-03-25T13:49:51.948Z,32.09
2018-03-25T13:50:57.040Z,32.22
2018-03-25T13:52:02.206Z,32.07
2018-03-25T13:53:07.511Z,32.33
2018-03-25T13:54:12.558Z,31.97
2018-03-25T13:55:17.510Z,32.09
2018-03-25T13:56:22.491Z,32.22
2018-03-25T13:57:27.696Z,32.31
2018-03-25T13:58:32.611Z,32.34
2018-03-25T13:59:38.045Z,32.02
2018-03-25T14:00:43.158Z,31.97
2018-03-25T14:01:48.230Z,31.91